METAR Formatted Surface Weather Observation
Issued by NWS

Home | Current Version | Previous Version | Text Only | Print | Product List | Glossary On
Versions: 1 2 3 4 5 6 7 8 9 10 11 12 13 14 15 16 17 18 19 20 21 22 23 24 25 26 27 28 29
000
SAUS45 KPSR 250957
MTRFHU
METAR KFHU 250956Z AUTO 10003KT 10SM CLR 08/M11 A3017 RMK AO2 SLP191
T00781106 $



USA.gov is the U.S. government's official web portal to all federal, state and local government web resources and services.